Time;durP1;ratioP1;P1;durP2;ratioP2;P2;SDS_P1;SDS_P2;PMS_P1;PMS_P2;Temp;Humidity;BMP_temperature;BMP_pressure;BME280_temperature;BME280_humidity;BME280_pressure;Samples;Min_cycle;Max_cycle;Signal;HPM_P1;HPM_P2
2022/05/05 00:01:51;;;;;;;16.05;6.78;;;6.20;99.90;;;;;;4933832;29;20044;-61
2022/05/05 00:04:18;;;;;;;10.20;6.50;;;6.50;99.90;;;;;;4933540;28;20048;-60
2022/05/05 00:06:44;;;;;;;12.00;7.13;;;;;;;;;;4918462;28;20089;-61
2022/05/05 00:09:10;;;;;;;16.30;7.18;;;6.50;99.90;;;;;;4918494;28;20039;-60
2022/05/05 00:14:50;;;;;;;12.77;6.85;;;;;;;;;;5186196;22;20104;-60
2022/05/05 00:17:16;;;;;;;12.23;6.93;;;;;;;;;;5016763;28;20034;-60
2022/05/05 00:19:43;;;;;;;14.68;6.35;;;6.40;99.90;;;;;;4998105;28;20041;-60
2022/05/05 00:22:09;;;;;;;14.15;6.97;;;6.60;99.90;;;;;;5014015;28;20057;-60
2022/05/05 00:24:37;;;;;;;12.32;7.35;;;;;;;;;;5015338;28;20037;-61
2022/05/05 00:27:03;;;;;;;15.30;7.72;;;6.70;99.90;;;;;;4997667;28;20116;-61
2022/05/05 00:29:28;;;;;;;15.40;7.35;;;6.80;99.90;;;;;;5015360;28;20045;-60
2022/05/05 00:31:54;;;;;;;13.07;6.93;;;;;;;;;;4998592;28;20038;-60
2022/05/05 00:34:20;;;;;;;11.43;7.30;;;6.60;99.90;;;;;;5015654;28;20066;-60
2022/05/05 00:36:46;;;;;;;11.30;7.47;;;6.80;99.90;;;;;;5014825;28;20505;-61
2022/05/05 00:39:12;;;;;;;12.13;6.53;;;6.70;99.90;;;;;;5013633;28;20042;-61
2022/05/05 00:41:47;;;;;;;12.13;6.93;;;6.60;99.90;;;;;;4997540;28;20041;-62
2022/05/05 00:44:14;;;;;;;19.33;7.68;;;;;;;;;;4997511;28;20041;-61
2022/05/05 00:46:40;;;;;;;14.57;6.85;;;;;;;;;;5014940;28;20092;-59
2022/05/05 00:49:06;;;;;;;13.15;7.38;;;6.80;99.90;;;;;;5015122;28;20034;-60
2022/05/05 00:51:32;;;;;;;14.68;7.18;;;;;;;;;;4981724;28;20109;-60
2022/05/05 00:53:58;;;;;;;11.88;6.80;;;6.70;99.90;;;;;;5015613;28;20046;-60
2022/05/05 00:56:24;;;;;;;14.68;6.90;;;6.80;99.90;;;;;;4997719;28;20407;-60
2022/05/05 00:58:52;;;;;;;9.95;6.18;;;6.90;99.90;;;;;;4997450;28;20041;-60
2022/05/05 01:01:19;;;;;;;14.40;6.80;;;6.70;99.90;;;;;;5014538;28;20128;-60
2022/05/05 01:03:45;;;;;;;13.57;6.15;;;;;;;;;;4997856;28;20056;-60
2022/05/05 01:06:13;;;;;;;15.30;6.95;;;6.80;99.90;;;;;;5018870;28;20085;-61
2022/05/05 01:08:39;;;;;;;14.27;6.63;;;;;;;;;;5001011;28;20053;-60
2022/05/05 01:11:05;;;;;;;13.15;6.85;;;6.60;99.90;;;;;;5017670;28;20041;-61
2022/05/05 01:13:31;;;;;;;14.10;6.35;;;6.80;99.90;;;;;;4980167;28;20050;-61
2022/05/05 01:15:58;;;;;;;12.20;6.10;;;6.90;99.90;;;;;;4980520;28;20058;-61
2022/05/05 01:18:24;;;;;;;9.55;6.57;;;6.90;99.90;;;;;;4998500;28;20049;-61
2022/05/05 01:20:52;;;;;;;9.13;5.72;;;6.90;99.90;;;;;;4981854;28;20411;-61
2022/05/05 01:23:19;;;;;;;14.00;6.93;;;;;;;;;;4981315;28;20038;-61
2022/05/05 01:28:32;;;;;;;9.48;5.78;;;6.60;99.90;;;;;;4999182;28;20484;-61
2022/05/05 01:30:58;;;;;;;13.10;6.45;;;6.50;99.90;;;;;;4998343;28;20053;-61
2022/05/05 01:33:25;;;;;;;9.38;5.70;;;;;;;;;;4980497;28;20428;-61
2022/05/05 01:35:53;;;;;;;9.80;6.03;;;6.60;99.90;;;;;;4998467;28;20137;-61
2022/05/05 01:38:36;;;;;;;10.05;5.70;;;6.60;99.90;;;;;;4981900;28;20519;-61
2022/05/05 01:41:06;;;;;;;9.27;5.43;;;6.50;99.90;;;;;;4981621;28;20050;-61
2022/05/05 01:43:32;;;;;;;11.90;6.03;;;6.50;99.90;;;;;;4981432;28;20117;-61
2022/05/05 01:45:58;;;;;;;8.48;5.47;;;;;;;;;;4991409;28;20109;-61
2022/05/05 01:48:24;;;;;;;10.48;5.78;;;;;;;;;;5000750;28;20053;-61
2022/05/05 01:50:50;;;;;;;8.07;5.85;;;6.50;99.90;;;;;;5017877;28;20120;-63
2022/05/05 01:53:16;;;;;;;13.05;6.65;;;6.50;99.90;;;;;;5017983;28;20515;-63
2022/05/05 01:55:42;;;;;;;13.20;6.63;;;;;;;;;;5017580;28;20073;-63
2022/05/05 01:58:08;;;;;;;12.75;6.55;;;;;;;;;;5000072;28;20046;-63
2022/05/05 02:00:34;;;;;;;13.82;5.78;;;6.60;99.90;;;;;;5017968;28;20046;-63
2022/05/05 02:03:01;;;;;;;15.15;6.13;;;;;;;;;;5000141;28;20100;-63
2022/05/05 02:05:27;;;;;;;14.80;7.88;;;6.60;99.90;;;;;;5018757;28;20038;-63
2022/05/05 02:07:53;;;;;;;8.73;5.47;;;6.30;99.90;;;;;;5001611;28;20579;-63
2022/05/05 02:10:20;;;;;;;8.10;5.60;;;6.60;99.90;;;;;;5016357;28;20079;-62
2022/05/05 02:12:46;;;;;;;13.75;6.07;;;6.50;99.90;;;;;;4999262;28;20037;-61
2022/05/05 02:15:13;;;;;;;12.18;7.00;;;6.60;99.90;;;;;;5015172;28;20069;-62
2022/05/05 02:17:41;;;;;;;10.13;6.03;;;6.50;99.90;;;;;;5015192;28;20050;-61
2022/05/05 02:20:08;;;;;;;7.00;4.90;;;6.70;99.90;;;;;;5016418;28;20117;-61
2022/05/05 02:22:33;;;;;;;8.38;4.97;;;6.60;99.90;;;;;;5016630;28;20480;-62
2022/05/05 02:24:59;;;;;;;9.52;5.07;;;6.40;99.90;;;;;;5015139;28;20120;-62
2022/05/05 02:27:25;;;;;;;10.18;5.50;;;6.20;99.90;;;;;;5017115;28;20038;-62
2022/05/05 02:29:52;;;;;;;7.07;4.72;;;5.90;99.90;;;;;;5000934;28;20034;-61
2022/05/05 02:32:18;;;;;;;6.95;5.18;;;5.80;99.90;;;;;;5017215;28;20038;-62
2022/05/05 02:34:45;;;;;;;7.72;6.13;;;5.80;99.90;;;;;;5016522;28;20065;-62
2022/05/05 02:39:56;;;;;;;6.22;4.68;;;5.40;99.90;;;;;;5016623;28;20437;-61
2022/05/05 02:42:22;;;;;;;11.00;5.45;;;5.70;99.90;;;;;;5016768;28;20044;-62
2022/05/05 02:44:47;;;;;;;16.52;6.80;;;5.70;99.90;;;;;;5015836;28;20085;-61
2022/05/05 02:47:13;;;;;;;12.68;6.10;;;5.80;99.90;;;;;;5016392;28;20561;-62
2022/05/05 02:49:39;;;;;;;11.10;5.63;;;5.80;99.90;;;;;;4999133;28;20053;-62
2022/05/05 02:52:06;;;;;;;14.90;6.63;;;5.70;99.90;;;;;;5016612;28;20160;-62
2022/05/05 02:54:47;;;;;;;9.15;5.75;;;;;;;;;;5015795;28;20034;-62
2022/05/05 02:57:23;;;;;;;8.50;5.38;;;5.70;99.90;;;;;;4998865;28;20034;-62
2022/05/05 02:59:53;;;;;;;10.70;5.75;;;5.70;99.90;;;;;;5014325;28;20049;-62
2022/05/05 03:02:19;;;;;;;7.10;4.65;;;;;;;;;;5015065;28;20038;-62
2022/05/05 03:04:45;;;;;;;5.70;5.00;;;;;;;;;;5015754;28;20412;-62
2022/05/05 03:07:11;;;;;;;9.18;4.72;;;5.50;99.90;;;;;;4998625;28;20551;-63
2022/05/05 03:09:38;;;;;;;9.07;5.57;;;5.40;99.90;;;;;;5015970;28;20072;-62
2022/05/05 03:12:05;;;;;;;8.65;6.07;;;5.20;99.90;;;;;;5016546;28;20092;-62
2022/05/05 03:14:31;;;;;;;11.88;6.43;;;5.20;99.90;;;;;;4998249;28;20050;-62
2022/05/05 03:16:56;;;;;;;7.22;5.85;;;5.20;99.90;;;;;;4982087;28;20045;-61
2022/05/05 03:19:22;;;;;;;16.38;6.57;;;;;;;;;;5016137;28;20109;-61
2022/05/05 03:21:48;;;;;;;11.43;6.72;;;5.20;99.90;;;;;;4998032;28;20041;-61
2022/05/05 03:24:13;;;;;;;9.13;6.38;;;4.80;99.90;;;;;;4998655;28;20109;-62
2022/05/05 03:26:39;;;;;;;12.75;6.82;;;4.80;99.90;;;;;;4982107;28;20045;-62
2022/05/05 03:29:05;;;;;;;11.75;6.22;;;4.70;99.90;;;;;;4998025;28;20442;-62
2022/05/05 03:31:32;;;;;;;16.02;6.85;;;4.70;99.90;;;;;;4997852;28;20168;-61
2022/05/05 03:33:58;;;;;;;10.88;6.38;;;;;;;;;;4997505;28;20057;-61
2022/05/05 03:36:24;;;;;;;9.02;6.10;;;;;;;;;;4997380;28;20038;-61
2022/05/05 03:38:54;;;;;;;9.82;6.35;;;4.60;99.90;;;;;;4997174;28;20045;-60
2022/05/05 03:41:20;;;;;;;8.23;5.07;;;;;;;;;;5015458;28;20125;-62
2022/05/05 03:43:46;;;;;;;9.77;6.28;;;;;;;;;;4997742;28;20041;-62
2022/05/05 03:46:12;;;;;;;12.18;6.15;;;;;;;;;;5014863;28;20084;-62
2022/05/05 03:48:37;;;;;;;11.23;5.15;;;4.70;99.90;;;;;;4998292;28;20058;-62
2022/05/05 03:51:03;;;;;;;10.35;6.70;;;4.60;99.90;;;;;;5015257;28;20399;-61
2022/05/05 03:53:29;;;;;;;10.18;5.60;;;4.80;99.90;;;;;;5013845;28;20052;-61
2022/05/05 03:55:55;;;;;;;11.30;6.10;;;;;;;;;;4997848;28;20116;-61
2022/05/05 03:58:21;;;;;;;9.68;6.55;;;;;;;;;;5014382;28;20045;-62
2022/05/05 04:00:46;;;;;;;8.43;5.40;;;4.80;99.90;;;;;;5015411;28;20049;-61
2022/05/05 04:03:31;;;;;;;12.40;5.60;;;;;;;;;;4998882;28;20116;-61
2022/05/05 04:06:04;;;;;;;9.73;5.73;;;4.50;99.90;;;;;;5014710;28;20053;-62
2022/05/05 04:08:30;;;;;;;9.02;6.18;;;4.40;99.90;;;;;;5015804;28;20041;-61
2022/05/05 04:10:56;;;;;;;9.63;5.85;;;4.40;99.90;;;;;;5015795;28;20038;-61
2022/05/05 04:13:22;;;;;;;10.50;6.15;;;4.60;99.90;;;;;;5013511;28;20050;-62
2022/05/05 04:15:48;;;;;;;11.50;5.57;;;4.30;99.90;;;;;;5013931;28;20126;-63
2022/05/05 04:18:14;;;;;;;8.88;5.78;;;4.70;99.90;;;;;;4997795;28;20038;-61
2022/05/05 04:20:41;;;;;;;7.72;6.05;;;4.60;99.90;;;;;;5015017;28;20433;-61
2022/05/05 04:23:06;;;;;;;6.68;5.43;;;4.80;99.90;;;;;;4997370;28;20396;-61
2022/05/05 04:25:33;;;;;;;8.38;5.35;;;4.80;99.90;;;;;;4998402;28;20054;-61
2022/05/05 04:27:59;;;;;;;13.98;5.93;;;;;;;;;;5014960;28;20034;-61
2022/05/05 04:30:25;;;;;;;10.45;6.38;;;;;;;;;;4982496;28;20041;-62
2022/05/05 04:32:52;;;;;;;7.22;6.15;;;;;;;;;;4995329;28;20070;-61
2022/05/05 04:35:18;;;;;;;12.23;6.43;;;;;;;;;;4996259;28;20438;-62
2022/05/05 04:37:44;;;;;;;8.93;5.47;;;4.70;99.90;;;;;;5009495;28;20078;-62
2022/05/05 04:40:10;;;;;;;9.95;6.15;;;;;;;;;;4996810;28;20084;-62
2022/05/05 04:42:37;;;;;;;13.85;6.70;;;;;;;;;;4997826;28;20126;-62
2022/05/05 04:45:04;;;;;;;13.65;5.97;;;4.60;99.90;;;;;;5015452;28;20377;-62
2022/05/05 04:47:30;;;;;;;9.50;6.25;;;;;;;;;;5015424;28;20160;-62
2022/05/05 04:49:56;;;;;;;11.35;6.28;;;;;;;;;;5005755;28;20129;-62
2022/05/05 04:52:24;;;;;;;11.68;7.38;;;;;;;;;;4978507;28;20065;-61
2022/05/05 04:54:50;;;;;;;9.75;6.55;;;4.70;99.90;;;;;;4994577;28;20050;-61
2022/05/05 04:57:16;;;;;;;10.57;7.43;;;;;;;;;;4993735;28;20420;-62
2022/05/05 04:59:42;;;;;;;13.43;8.00;;;;;;;;;;4977842;28;20511;-62
2022/05/05 05:02:08;;;;;;;12.30;8.18;;;;;;;;;;4995774;28;20046;-62
2022/05/05 05:04:34;;;;;;;10.27;7.35;;;;;;;;;;4994823;28;20046;-62
2022/05/05 05:07:00;;;;;;;10.57;7.82;;;;;;;;;;4996621;28;20111;-62
2022/05/05 05:09:25;;;;;;;13.45;7.88;;;5.30;99.90;;;;;;4961744;28;20392;-63
2022/05/05 05:11:51;;;;;;;10.60;6.85;;;5.40;99.90;;;;;;4977850;28;20046;-62
2022/05/05 05:14:17;;;;;;;10.38;6.70;;;;;;;;;;4994881;28;20069;-60
2022/05/05 05:16:43;;;;;;;8.68;6.22;;;;;;;;;;5006186;28;20057;-62
2022/05/05 05:19:09;;;;;;;11.27;6.40;;;5.40;99.90;;;;;;5014592;28;20044;-62
2022/05/05 05:21:34;;;;;;;8.70;6.32;;;5.30;99.90;;;;;;5012775;28;20041;-63
2022/05/05 05:24:02;;;;;;;11.88;7.38;;;;;;;;;;4995102;28;20077;-62
2022/05/05 05:26:28;;;;;;;16.67;8.63;;;5.50;99.90;;;;;;5012632;28;20104;-65
2022/05/05 05:28:54;;;;;;;15.05;8.23;;;;;;;;;;5011377;28;20041;-65
2022/05/05 05:31:21;;;;;;;16.52;8.32;;;;;;;;;;5012436;28;20110;-65
2022/05/05 05:33:47;;;;;;;10.52;7.85;;;;;;;;;;5012584;28;20168;-65
2022/05/05 05:36:13;;;;;;;18.73;10.32;;;;;;;;;;5007394;28;20403;-64
2022/05/05 05:38:39;;;;;;;17.20;11.07;;;6.00;99.90;;;;;;5011532;28;20042;-64
2022/05/05 05:41:05;;;;;;;18.73;11.02;;;;;;;;;;5010770;28;20049;-66
2022/05/05 05:43:31;;;;;;;18.08;10.40;;;6.80;99.90;;;;;;5011709;28;20033;-65
2022/05/05 05:45:57;;;;;;;16.15;10.25;;;;;;;;;;5009979;28;20427;-65
2022/05/05 05:48:23;;;;;;;16.70;10.15;;;;;;;;;;4992252;28;20081;-65
2022/05/05 05:50:49;;;;;;;15.63;9.98;;;;;;;;;;5010597;28;20074;-65
2022/05/05 05:53:15;;;;;;;18.88;10.38;;;;;;;;;;5009676;28;20041;-65
2022/05/05 05:55:41;;;;;;;17.77;9.98;;;;;;;;;;5014362;28;20045;-64
2022/05/05 05:58:07;;;;;;;12.73;9.00;;;;;;;;;;5011207;28;20033;-63
2022/05/05 06:00:33;;;;;;;13.35;9.68;;;8.90;99.90;;;;;;4993561;28;20044;-64
2022/05/05 06:05:45;;;;;;;17.40;10.47;;;;;;;;;;5010894;28;20137;-64
2022/05/05 06:08:11;;;;;;;18.58;9.23;;;9.80;99.90;;;;;;4993631;28;20053;-65
2022/05/05 06:10:37;;;;;;;13.25;8.93;;;10.00;99.90;;;;;;4992912;28;20092;-65
2022/05/05 06:13:03;;;;;;;13.60;9.13;;;;;;;;;;4993471;28;20484;-65
2022/05/05 06:15:30;;;;;;;15.00;9.80;;;;;;;;;;4993513;28;20046;-65
2022/05/05 06:17:56;;;;;;;14.38;8.57;;;;;;;;;;5010999;28;20053;-65
2022/05/05 06:20:22;;;;;;;13.95;9.07;;;;;;;;;;4993388;28;20080;-65
2022/05/05 06:22:52;;;;;;;16.88;9.30;;;;;;;;;;5010415;28;20051;-63
2022/05/05 06:25:20;;;;;;;16.50;8.90;;;;;;;;;;5008918;28;20493;-63
2022/05/05 06:27:46;;;;;;;13.95;9.38;;;11.50;99.90;;;;;;5008198;28;20116;-64
2022/05/05 06:30:13;;;;;;;18.20;9.80;;;;;;;;;;4992502;28;20049;-65
2022/05/05 06:32:43;;;;;;;16.35;9.02;;;11.60;99.90;;;;;;4993850;28;20041;-64
2022/05/05 06:35:09;;;;;;;13.00;8.80;;;13.30;99.90;;;;;;4993173;28;20073;-64
2022/05/05 06:37:36;;;;;;;13.27;8.50;;;;;;;;;;4994119;28;20049;-64
2022/05/05 06:40:02;;;;;;;13.00;8.73;;;;;;;;;;4975743;28;20061;-64
2022/05/05 06:42:28;;;;;;;14.95;9.05;;;12.30;99.90;;;;;;4976443;28;20388;-65
2022/05/05 06:44:54;;;;;;;15.15;8.52;;;;;;;;;;4994176;28;20120;-64
2022/05/05 06:47:20;;;;;;;16.90;8.68;;;;;;;;;;4976705;28;20054;-64
2022/05/05 06:49:46;;;;;;;13.23;8.60;;;;;;;;;;4975122;28;20823;-64
2022/05/05 06:52:12;;;;;;;16.48;8.63;;;;;;;;;;4976111;28;20058;-64
2022/05/05 06:54:38;;;;;;;14.45;8.52;;;;;;;;;;4992157;28;20050;-65
2022/05/05 06:57:05;;;;;;;14.48;8.57;;;;;;;;;;4973497;28;20046;-65
2022/05/05 06:59:31;;;;;;;13.93;7.82;;;;;;;;;;4992369;28;20056;-65
2022/05/05 07:02:01;;;;;;;14.45;8.55;;;;;;;;;;4972836;28;20065;-65
2022/05/05 07:07:13;;;;;;;14.77;9.00;;;11.80;99.90;;;;;;4973857;28;20140;-66
2022/05/05 07:12:25;;;;;;;18.88;9.10;;;;;;;;;;4973857;28;20053;-65
2022/05/05 07:14:51;;;;;;;17.58;8.18;;;12.10;99.90;;;;;;4973972;28;20108;-65
2022/05/05 07:17:17;;;;;;;12.32;8.48;;;;;;;;;;4974134;28;20149;-65
2022/05/05 07:19:44;;;;;;;11.93;7.53;;;;;;;;;;4973811;28;20214;-64
2022/05/05 07:22:10;;;;;;;12.70;7.72;;;;;;;;;;4991649;28;20057;-64
2022/05/05 07:24:36;;;;;;;12.90;7.53;;;12.10;99.90;;;;;;4991606;28;20052;-65
2022/05/05 07:27:02;;;;;;;14.40;7.78;;;;;;;;;;4991019;28;20664;-66
2022/05/05 07:29:28;;;;;;;13.65;7.28;;;12.20;99.90;;;;;;4969756;28;20050;-65
2022/05/05 07:31:54;;;;;;;13.23;7.57;;;;;;;;;;4991182;28;20045;-65
2022/05/05 07:34:20;;;;;;;14.77;7.97;;;;;;;;;;4970462;28;20049;-65
2022/05/05 07:36:46;;;;;;;14.23;8.45;;;12.30;99.90;;;;;;4973167;28;20046;-63
2022/05/05 07:39:12;;;;;;;13.25;6.93;;;12.40;99.90;;;;;;4991177;28;20091;-63
2022/05/05 07:41:38;;;;;;;14.40;7.53;;;12.50;99.90;;;;;;4971155;28;20050;-64
2022/05/05 07:44:05;;;;;;;20.42;8.52;;;;;;;;;;4988712;28;20046;-64
2022/05/05 07:46:32;;;;;;;14.88;8.00;;;;;;;;;;4954879;28;20081;-65
2022/05/05 07:48:58;;;;;;;25.40;9.48;;;12.80;99.90;;;;;;4988195;28;20330;-64
2022/05/05 07:51:24;;;;;;;13.07;7.70;;;;;;;;;;4971436;28;20042;-65
2022/05/05 07:56:34;;;;;;;12.68;7.97;;;;;;;;;;4988910;28;20448;-64
2022/05/05 07:59:00;;;;;;;16.02;6.82;;;;;;;;;;4973323;28;20038;-65
2022/05/05 08:01:26;;;;;;;14.40;7.45;;;;;;;;;;4988773;28;20077;-65
2022/05/05 08:03:52;;;;;;;12.07;7.93;;;;;;;;;;4990813;28;20494;-65
2022/05/05 08:06:19;;;;;;;17.33;7.53;;;;;;;;;;4990934;28;20050;-65
2022/05/05 08:08:45;;;;;;;14.32;8.13;;;;;;;;;;4956460;28;20093;-65
2022/05/05 08:11:11;;;;;;;11.75;7.20;;;;;;;;;;4990384;28;20089;-64
2022/05/05 08:13:37;;;;;;;17.60;7.22;;;;;;;;;;4973062;28;20053;-64
2022/05/05 08:16:03;;;;;;;12.10;7.57;;;;;;;;;;4996661;28;20455;-65
2022/05/05 08:18:29;;;;;;;14.05;7.18;;;;;;;;;;4962398;28;20326;-65
2022/05/05 08:20:55;;;;;;;12.75;7.25;;;;;;;;;;4996495;28;20045;-65
2022/05/05 08:23:20;;;;;;;14.50;6.70;;;14.20;99.90;;;;;;4996203;28;20053;-65
2022/05/05 08:28:33;;;;;;;15.75;7.45;;;;;;;;;;4996695;28;20507;-64
2022/05/05 08:30:59;;;;;;;12.70;6.85;;;;;;;;;;4995619;28;20642;-63
2022/05/05 08:33:27;;;;;;;16.48;6.90;;;14.70;99.90;;;;;;4995557;28;20445;-62
2022/05/05 08:35:59;;;;;;;12.98;6.32;;;14.70;99.90;;;;;;4977382;28;20058;-62
2022/05/05 08:38:25;;;;;;;14.93;7.72;;;14.80;99.90;;;;;;4994931;28;20046;-62
2022/05/05 08:40:51;;;;;;;9.40;6.03;;;;;;;;;;4983552;28;20504;-62
2022/05/05 08:43:18;;;;;;;12.82;6.53;;;14.90;99.90;;;;;;4995315;28;20480;-62
2022/05/05 08:45:47;;;;;;;9.02;6.35;;;15.20;99.90;;;;;;4976133;28;20072;-62
2022/05/05 08:48:13;;;;;;;12.40;5.40;;;;;;;;;;4991599;28;20046;-62
2022/05/05 08:50:41;;;;;;;14.80;6.20;;;15.20;99.90;;;;;;4992475;28;20039;-62
2022/05/05 08:53:07;;;;;;;8.85;5.57;;;15.50;99.90;;;;;;4990668;28;20053;-63
2022/05/05 08:55:34;;;;;;;14.35;6.53;;;15.60;99.90;;;;;;4974986;28;20049;-63
2022/05/05 08:58:01;;;;;;;12.25;5.97;;;15.80;99.90;;;;;;4976250;28;20054;-63
2022/05/05 09:00:27;;;;;;;10.30;6.85;;;15.90;99.90;;;;;;4976081;28;20066;-63
2022/05/05 09:03:00;;;;;;;11.48;6.30;;;16.00;99.90;;;;;;4976181;28;20448;-64
2022/05/05 09:05:43;;;;;;;12.88;6.68;;;16.10;99.90;;;;;;4994455;28;20045;-64
2022/05/05 09:08:13;;;;;;;11.15;6.10;;;16.20;99.90;;;;;;4976887;28;20136;-64
2022/05/05 09:10:45;;;;;;;9.30;6.30;;;16.20;99.90;;;;;;4994680;28;20054;-64
2022/05/05 09:13:11;;;;;;;13.45;7.07;;;16.30;99.90;;;;;;4994611;28;20139;-63
2022/05/05 09:15:41;;;;;;;15.73;5.80;;;16.10;99.90;;;;;;4977391;28;20170;-64
2022/05/05 09:18:20;;;;;;;12.88;6.97;;;16.40;99.90;;;;;;4993715;28;20132;-64
2022/05/05 09:20:48;;;;;;;14.50;7.22;;;16.60;99.90;;;;;;4992981;28;20144;-64
2022/05/05 09:23:27;;;;;;;14.32;6.00;;;16.50;99.90;;;;;;4994976;28;20050;-64
2022/05/05 09:25:53;;;;;;;15.43;6.43;;;16.70;99.90;;;;;;4974021;28;20500;-64
2022/05/05 09:28:31;;;;;;;12.63;6.60;;;16.80;99.90;;;;;;4994303;28;20046;-64
2022/05/05 09:31:03;;;;;;;9.88;6.07;;;17.00;99.90;;;;;;4991592;28;20042;-64
2022/05/05 09:33:37;;;;;;;9.30;6.13;;;17.10;99.90;;;;;;4994247;28;20514;-64
2022/05/05 09:36:05;;;;;;;7.80;5.22;;;16.90;99.90;;;;;;4959098;28;20053;-64
2022/05/05 09:38:54;;;;;;;11.35;5.93;;;17.20;99.90;;;;;;4993865;28;20088;-64
2022/05/05 09:41:24;;;;;;;9.25;6.43;;;17.20;99.90;;;;;;4994605;28;20042;-64
2022/05/05 09:43:51;;;;;;;17.65;7.30;;;17.10;99.90;;;;;;4994616;28;20044;-64
2022/05/05 09:46:23;;;;;;;14.35;6.55;;;17.10;99.90;;;;;;4976432;28;20065;-64
2022/05/05 09:48:50;;;;;;;13.30;6.55;;;17.50;99.90;;;;;;4993555;28;20046;-63
2022/05/05 09:51:16;;;;;;;9.55;6.15;;;17.30;99.90;;;;;;4992149;28;20061;-64
2022/05/05 09:59:30;;;;;;;10.03;5.83;;;17.20;99.90;;;;;;4993366;28;20137;-64
2022/05/05 10:02:04;;;;;;;12.43;6.43;;;17.00;99.90;;;;;;4974747;28;20053;-64
2022/05/05 10:04:35;;;;;;;14.95;6.65;;;17.30;99.90;;;;;;4975084;28;20049;-64
2022/05/05 10:07:02;;;;;;;11.35;6.07;;;17.40;99.90;;;;;;4976385;28;20045;-64
2022/05/05 10:09:29;;;;;;;12.60;6.60;;;17.30;99.90;;;;;;4975470;28;20080;-64
2022/05/05 10:11:55;;;;;;;11.23;7.00;;;17.50;99.90;;;;;;4987777;28;20048;-64
2022/05/05 10:14:21;;;;;;;9.90;5.85;;;17.10;99.90;;;;;;4969832;28;20057;-64
2022/05/05 10:16:47;;;;;;;10.48;6.25;;;17.00;99.90;;;;;;4970981;28;20089;-64
2022/05/05 10:19:15;;;;;;;10.48;6.22;;;17.20;99.90;;;;;;4988918;28;20127;-64
2022/05/05 10:22:08;;;;;;;12.95;6.93;;;17.40;99.90;;;;;;4987839;28;20107;-64
2022/05/05 10:24:56;;;;;;;9.82;6.15;;;16.80;99.90;;;;;;4962812;28;20147;-64
2022/05/05 10:27:22;;;;;;;8.75;6.18;;;17.10;99.90;;;;;;4978536;28;20058;-64
2022/05/05 10:29:48;;;;;;;13.80;6.75;;;17.30;99.90;;;;;;4989187;28;20530;-64
2022/05/05 10:32:21;;;;;;;9.68;6.70;;;17.40;99.90;;;;;;4989121;28;20077;-64
2022/05/05 10:34:53;;;;;;;10.45;6.47;;;17.20;99.90;;;;;;4989844;28;20099;-64
2022/05/05 10:37:22;;;;;;;10.98;7.35;;;17.20;99.90;;;;;;4986689;28;20509;-64
2022/05/05 10:40:01;;;;;;;8.95;6.35;;;17.50;99.90;;;;;;4972505;28;20076;-64
2022/05/05 10:42:27;;;;;;;10.98;6.55;;;17.50;99.90;;;;;;4973335;28;20061;-65
2022/05/05 10:45:18;;;;;;;9.30;6.57;;;17.10;99.90;;;;;;4989316;28;20476;-65
2022/05/05 10:47:55;;;;;;;12.57;6.47;;;17.50;99.90;;;;;;4987491;28;20099;-64
2022/05/05 10:50:50;;;;;;;10.68;6.18;;;17.40;99.90;;;;;;4988262;28;20046;-65
2022/05/05 10:53:26;;;;;;;8.10;5.72;;;17.40;99.90;;;;;;4989134;28;20858;-64
2022/05/05 10:55:52;;;;;;;8.38;5.97;;;17.50;99.90;;;;;;4972994;28;20083;-64
2022/05/05 10:58:54;;;;;;;11.10;6.93;;;17.70;99.90;;;;;;4991947;28;20407;-64
2022/05/05 11:01:20;;;;;;;8.45;5.95;;;17.50;99.90;;;;;;4991780;28;20052;-64
2022/05/05 11:04:18;;;;;;;10.20;6.05;;;18.70;99.90;;;;;;4990846;28;20411;-64
2022/05/05 11:06:45;;;;;;;9.23;5.78;;;18.10;99.90;;;;;;4953870;28;20970;-64
2022/05/05 11:09:33;;;;;;;8.43;5.15;;;18.10;99.90;;;;;;4991600;28;20149;-65
2022/05/05 11:12:30;;;;;;;7.05;5.55;;;18.30;99.90;;;;;;4972668;28;20046;-63
2022/05/05 11:23:43;;;;;;;11.07;7.18;;;18.50;99.90;;;;;;4939742;28;20424;-64
2022/05/05 11:26:10;;;;;;;11.57;6.35;;;18.80;99.90;;;;;;4943575;28;20093;-64
2022/05/05 11:28:36;;;;;;;9.35;6.13;;;18.50;99.90;;;;;;4937328;28;20135;-65
2022/05/05 11:31:03;;;;;;;10.77;6.82;;;18.60;99.90;;;;;;4949978;28;20042;-65
2022/05/05 11:33:28;;;;;;;9.23;6.40;;;18.60;99.90;;;;;;4939043;28;20098;-65
2022/05/05 11:36:00;;;;;;;12.48;6.88;;;18.30;99.90;;;;;;4937022;28;20046;-67
2022/05/05 11:38:28;;;;;;;9.35;6.30;;;18.40;99.90;;;;;;4952973;28;20047;-65
2022/05/05 11:41:05;;;;;;;9.90;6.35;;;18.70;99.90;;;;;;4943264;28;20055;-64
2022/05/05 11:46:17;;;;;;;8.15;6.25;;;18.90;99.90;;;;;;4936231;28;20162;-65
2022/05/05 11:48:43;;;;;;;10.07;6.43;;;18.80;99.90;;;;;;4936191;28;20043;-65
2022/05/05 11:51:10;;;;;;;10.13;6.45;;;18.90;99.90;;;;;;4933142;28;20071;-66
2022/05/05 11:53:36;;;;;;;10.98;6.70;;;18.90;99.90;;;;;;4930157;28;20093;-66
2022/05/05 11:56:03;;;;;;;11.05;6.82;;;18.90;99.90;;;;;;4933036;28;20344;-67
2022/05/05 12:01:38;;;;;;;11.15;7.60;;;18.90;99.90;;;;;;4925710;28;20089;-67
2022/05/05 12:04:04;;;;;;;11.88;7.13;;;18.80;99.90;;;;;;4951448;28;20050;-67
2022/05/05 12:06:31;;;;;;;9.98;6.70;;;18.60;99.90;;;;;;4941131;28;20402;-67
2022/05/05 12:08:58;;;;;;;12.25;6.95;;;18.20;99.90;;;;;;4937062;28;20039;-69
2022/05/05 12:11:30;;;;;;;11.10;7.00;;;18.70;99.90;;;;;;4934177;28;20137;-67
2022/05/05 12:14:09;;;;;;;9.63;7.20;;;18.70;99.90;;;;;;4958911;28;20716;-64
2022/05/05 12:16:36;;;;;;;12.18;7.63;;;19.00;99.90;;;;;;4966383;28;20049;-67
2022/05/05 12:19:11;;;;;;;10.65;7.20;;;18.90;99.90;;;;;;4967193;28;20045;-65
2022/05/05 12:21:38;;;;;;;14.80;7.72;;;19.00;99.90;;;;;;4985469;28;20056;-69
2022/05/05 12:24:04;;;;;;;12.55;7.28;;;18.70;99.90;;;;;;4967051;28;20049;-66
2022/05/05 12:26:32;;;;;;;10.02;6.28;;;18.50;99.90;;;;;;4984845;28;20050;-63
2022/05/05 12:28:58;;;;;;;10.43;7.78;;;18.60;99.90;;;;;;4985452;28;20046;-65
2022/05/05 12:31:24;;;;;;;13.52;7.72;;;18.60;99.90;;;;;;4967905;28;20404;-65
2022/05/05 12:33:50;;;;;;;20.00;8.10;;;18.60;99.90;;;;;;4984858;28;20119;-64
2022/05/05 12:36:17;;;;;;;13.75;7.93;;;18.60;99.90;;;;;;4967340;28;20459;-65
2022/05/05 12:38:43;;;;;;;11.10;6.30;;;18.00;99.90;;;;;;4982956;28;20050;-64
2022/05/05 12:41:09;;;;;;;9.88;5.95;;;18.90;99.90;;;;;;4984706;28;20057;-66
2022/05/05 12:43:35;;;;;;;7.72;4.80;;;18.60;99.90;;;;;;4983089;28;20152;-67
2022/05/05 12:46:04;;;;;;;9.65;5.70;;;19.10;99.90;;;;;;4967495;28;20483;-65
2022/05/05 12:48:30;;;;;;;8.43;5.15;;;19.20;99.90;;;;;;4984454;28;20050;-64
2022/05/05 12:50:56;;;;;;;9.43;4.53;;;19.30;99.90;;;;;;4955897;28;20089;-66
2022/05/05 13:01:42;;;;;;;10.10;5.15;;;19.10;99.90;;;;;;4972142;28;20161;-61
2022/05/05 13:04:12;;;;;;;10.90;5.00;;;19.20;99.90;;;;;;4971685;28;20061;-64
2022/05/05 13:06:39;;;;;;;7.03;4.95;;;19.30;99.90;;;;;;4989658;28;20046;-62
2022/05/05 13:09:09;;;;;;;6.75;5.10;;;19.70;99.90;;;;;;4972502;28;20522;-64
2022/05/05 13:11:39;;;;;;;8.77;5.43;;;19.60;99.90;;;;;;4989998;28;20054;-65
2022/05/05 13:14:05;;;;;;;7.45;5.07;;;19.30;99.90;;;;;;4985288;28;20058;-67
2022/05/05 13:16:31;;;;;;;8.75;5.22;;;19.50;99.90;;;;;;4987207;28;20584;-62
2022/05/05 13:18:58;;;;;;;9.30;5.57;;;19.50;99.90;;;;;;4988861;28;20046;-63
2022/05/05 13:21:24;;;;;;;9.75;5.78;;;19.80;99.90;;;;;;4987788;28;20560;-64
2022/05/05 13:23:51;;;;;;;8.80;5.70;;;19.80;99.90;;;;;;4987727;28;20042;-64
2022/05/05 13:26:17;;;;;;;10.05;4.80;;;19.60;99.90;;;;;;4987080;28;20050;-64
2022/05/05 13:28:43;;;;;;;10.82;6.13;;;19.70;99.90;;;;;;4989772;28;20462;-64
2022/05/05 13:31:08;;;;;;;11.45;5.38;;;19.90;99.90;;;;;;4992535;28;20046;-64
2022/05/05 13:33:34;;;;;;;8.82;5.15;;;19.80;99.90;;;;;;4993347;28;20061;-64
2022/05/05 13:36:00;;;;;;;8.98;4.90;;;19.70;99.90;;;;;;4993002;28;20554;-64
2022/05/05 13:38:26;;;;;;;7.55;4.95;;;19.70;99.90;;;;;;4990880;28;20050;-64
2022/05/05 13:40:52;;;;;;;9.98;6.03;;;19.50;99.90;;;;;;4974804;28;20049;-64
2022/05/05 13:43:18;;;;;;;11.85;6.00;;;19.70;99.90;;;;;;4985603;28;20491;-63
2022/05/05 13:45:43;;;;;;;7.10;4.80;;;19.70;99.90;;;;;;4975886;28;20046;-64
2022/05/05 13:48:09;;;;;;;8.32;5.13;;;19.50;99.90;;;;;;4975490;28;20051;-64
2022/05/05 13:50:35;;;;;;;9.52;5.18;;;19.50;99.90;;;;;;4992577;28;20042;-64
2022/05/05 13:53:00;;;;;;;10.63;5.30;;;19.60;99.90;;;;;;4992652;28;20050;-64
2022/05/05 13:55:28;;;;;;;9.38;5.00;;;19.60;99.90;;;;;;4992581;28;20053;-64
2022/05/05 13:57:57;;;;;;;8.80;5.93;;;19.90;99.90;;;;;;4976875;28;20073;-64
2022/05/05 14:00:24;;;;;;;6.57;4.53;;;20.10;99.90;;;;;;4994266;28;20076;-64
2022/05/05 14:02:50;;;;;;;7.68;5.07;;;20.00;99.90;;;;;;4996213;28;20065;-61
2022/05/05 14:05:16;;;;;;;9.98;4.43;;;20.20;99.90;;;;;;4995845;28;20050;-62
2022/05/05 14:13:10;;;;;;;8.85;4.82;;;20.20;99.90;;;;;;4996310;28;20504;-63
2022/05/05 14:15:38;;;;;;;7.40;4.80;;;20.20;99.90;;;;;;4996434;28;20057;-63